sensor_id;sensor_type;location;lat;lon;timestamp;pressure;altitude;pressure_sealevel;temperature;humidity
14612;BME280;7392;52.078;11.650;2022-07-01T00:02:24;100294.56;;;23.01;77.82
14612;BME280;7392;52.078;11.650;2022-07-01T00:04:52;100292.94;;;22.98;77.89
14612;BME280;7392;52.078;11.650;2022-07-01T00:07:40;100287.78;;;22.93;77.96
14612;BME280;7392;52.078;11.650;2022-07-01T00:10:08;100287.97;;;22.90;77.91
14612;BME280;7392;52.078;11.650;2022-07-01T00:12:37;100289.13;;;22.86;78.07
14612;BME280;7392;52.078;11.650;2022-07-01T00:15:05;100287.47;;;22.84;78.31
14612;BME280;7392;52.078;11.650;2022-07-01T00:17:34;100282.34;;;22.79;78.31
14612;BME280;7392;52.078;11.650;2022-07-01T00:20:02;100292.41;;;22.77;78.42
14612;BME280;7392;52.078;11.650;2022-07-01T00:22:30;100282.63;;;22.74;78.91
14612;BME280;7392;52.078;11.650;2022-07-01T00:24:59;100285.59;;;22.70;79.29
14612;BME280;7392;52.078;11.650;2022-07-01T00:27:27;100272.38;;;22.65;79.67
14612;BME280;7392;52.078;11.650;2022-07-01T00:29:55;100268.97;;;22.62;79.98
14612;BME280;7392;52.078;11.650;2022-07-01T00:32:23;100270.97;;;22.58;80.04
14612;BME280;7392;52.078;11.650;2022-07-01T00:34:51;100272.97;;;22.54;80.56
14612;BME280;7392;52.078;11.650;2022-07-01T00:37:19;100261.47;;;22.51;80.92
14612;BME280;7392;52.078;11.650;2022-07-01T00:39:47;100264.25;;;22.49;81.82
14612;BME280;7392;52.078;11.650;2022-07-01T00:42:16;100255.38;;;22.47;82.21
14612;BME280;7392;52.078;11.650;2022-07-01T00:44:44;100254.59;;;22.45;81.93
14612;BME280;7392;52.078;11.650;2022-07-01T00:47:13;100244.81;;;22.42;82.15
14612;BME280;7392;52.078;11.650;2022-07-01T00:49:41;100237.69;;;22.41;82.44
14612;BME280;7392;52.078;11.650;2022-07-01T00:52:09;100243.28;;;22.38;83.14
14612;BME280;7392;52.078;11.650;2022-07-01T00:54:38;100249.63;;;22.37;83.92
14612;BME280;7392;52.078;11.650;2022-07-01T00:57:08;100242.59;;;22.35;84.32
14612;BME280;7392;52.078;11.650;2022-07-01T00:59:38;100240.84;;;22.34;84.76
14612;BME280;7392;52.078;11.650;2022-07-01T01:02:08;100242.84;;;22.30;84.94
14612;BME280;7392;52.078;11.650;2022-07-01T01:04:36;100230.41;;;22.28;85.72
14612;BME280;7392;52.078;11.650;2022-07-01T01:07:04;100227.84;;;22.25;85.95
14612;BME280;7392;52.078;11.650;2022-07-01T01:09:33;100228.88;;;22.22;86.14
14612;BME280;7392;52.078;11.650;2022-07-01T01:12:01;100228.09;;;22.20;85.82
14612;BME280;7392;52.078;11.650;2022-07-01T01:14:29;100230.88;;;22.18;85.45
14612;BME280;7392;52.078;11.650;2022-07-01T01:16:58;100231.88;;;22.17;85.11
14612;BME280;7392;52.078;11.650;2022-07-01T01:19:26;100239.16;;;22.15;85.19
14612;BME280;7392;52.078;11.650;2022-07-01T01:21:55;100251.91;;;22.13;84.93
14612;BME280;7392;52.078;11.650;2022-07-01T01:24:23;100252.91;;;22.12;84.79
14612;BME280;7392;52.078;11.650;2022-07-01T01:26:51;100262.91;;;22.10;85.33
14612;BME280;7392;52.078;11.650;2022-07-01T01:29:19;100267.44;;;22.10;85.35
14612;BME280;7392;52.078;11.650;2022-07-01T01:31:47;100251.31;;;22.08;86.04
14612;BME280;7392;52.078;11.650;2022-07-01T01:34:15;100262.22;;;22.07;86.03
14612;BME280;7392;52.078;11.650;2022-07-01T01:36:43;100264.13;;;22.04;86.30
14612;BME280;7392;52.078;11.650;2022-07-01T01:39:12;100273.22;;;22.03;87.11
14612;BME280;7392;52.078;11.650;2022-07-01T01:41:40;100293.09;;;22.02;87.79
14612;BME280;7392;52.078;11.650;2022-07-01T01:44:08;100296.06;;;21.98;88.76
14612;BME280;7392;52.078;11.650;2022-07-01T01:46:36;100308.00;;;21.94;89.04
14612;BME280;7392;52.078;11.650;2022-07-01T01:49:05;100325.25;;;21.91;89.06
14612;BME280;7392;52.078;11.650;2022-07-01T01:51:33;100332.75;;;21.86;89.07
14612;BME280;7392;52.078;11.650;2022-07-01T01:54:01;100376.28;;;21.81;90.12
14612;BME280;7392;52.078;11.650;2022-07-01T01:56:31;100411.47;;;21.80;91.13
14612;BME280;7392;52.078;11.650;2022-07-01T01:58:59;100404.41;;;21.77;92.11
14612;BME280;7392;52.078;11.650;2022-07-01T02:01:27;100402.75;;;21.75;91.42
14612;BME280;7392;52.078;11.650;2022-07-01T02:03:55;100394.72;;;21.73;91.53
14612;BME280;7392;52.078;11.650;2022-07-01T02:06:23;100395.81;;;21.69;90.40
14612;BME280;7392;52.078;11.650;2022-07-01T02:08:51;100407.69;;;21.66;87.77
14612;BME280;7392;52.078;11.650;2022-07-01T02:11:19;100367.91;;;21.53;84.57
14612;BME280;7392;52.078;11.650;2022-07-01T02:13:48;100362.16;;;21.41;84.39
14612;BME280;7392;52.078;11.650;2022-07-01T02:16:16;100328.50;;;21.31;84.26
14612;BME280;7392;52.078;11.650;2022-07-01T02:18:44;100315.59;;;21.20;84.95
14612;BME280;7392;52.078;11.650;2022-07-01T02:21:12;100296.06;;;21.15;85.23
14612;BME280;7392;52.078;11.650;2022-07-01T02:23:39;100287.34;;;21.10;85.34
14612;BME280;7392;52.078;11.650;2022-07-01T02:26:07;100267.81;;;21.05;85.75
14612;BME280;7392;52.078;11.650;2022-07-01T02:28:35;100266.41;;;20.98;86.17
14612;BME280;7392;52.078;11.650;2022-07-01T02:31:04;100265.78;;;20.92;86.53
14612;BME280;7392;52.078;11.650;2022-07-01T02:33:32;100276.00;;;20.86;86.98
14612;BME280;7392;52.078;11.650;2022-07-01T02:36:00;100274.50;;;20.80;87.04
14612;BME280;7392;52.078;11.650;2022-07-01T02:38:28;100272.84;;;20.78;87.01
14612;BME280;7392;52.078;11.650;2022-07-01T02:40:56;100278.16;;;20.79;86.98
14612;BME280;7392;52.078;11.650;2022-07-01T02:43:25;100284.34;;;20.81;86.31
14612;BME280;7392;52.078;11.650;2022-07-01T02:45:53;100283.28;;;20.84;86.17
14612;BME280;7392;52.078;11.650;2022-07-01T02:48:22;100286.88;;;20.84;85.86
14612;BME280;7392;52.078;11.650;2022-07-01T02:50:50;100318.28;;;20.85;84.91
14612;BME280;7392;52.078;11.650;2022-07-01T02:53:17;100306.88;;;20.80;85.12
14612;BME280;7392;52.078;11.650;2022-07-01T02:55:45;100311.41;;;20.80;85.60
14612;BME280;7392;52.078;11.650;2022-07-01T02:58:13;100334.56;;;20.84;85.77
14612;BME280;7392;52.078;11.650;2022-07-01T03:00:41;100343.41;;;20.87;85.35
14612;BME280;7392;52.078;11.650;2022-07-01T03:03:09;100356.88;;;20.87;86.29
14612;BME280;7392;52.078;11.650;2022-07-01T03:05:38;100373.09;;;20.87;87.04
14612;BME280;7392;52.078;11.650;2022-07-01T03:08:06;100381.06;;;20.89;87.74
14612;BME280;7392;52.078;11.650;2022-07-01T03:10:34;100383.88;;;20.87;89.56
14612;BME280;7392;52.078;11.650;2022-07-01T03:13:02;100355.06;;;20.88;91.41
14612;BME280;7392;52.078;11.650;2022-07-01T03:15:29;100326.31;;;20.87;93.89
14612;BME280;7392;52.078;11.650;2022-07-01T03:17:58;100345.28;;;20.85;95.35
14612;BME280;7392;52.078;11.650;2022-07-01T03:20:25;100375.22;;;20.81;96.95
14612;BME280;7392;52.078;11.650;2022-07-01T03:22:55;100426.69;;;20.76;96.29
14612;BME280;7392;52.078;11.650;2022-07-01T03:25:23;100461.19;;;20.69;97.62
14612;BME280;7392;52.078;11.650;2022-07-01T03:27:50;100467.97;;;20.59;98.00
14612;BME280;7392;52.078;11.650;2022-07-01T03:30:18;100480.06;;;20.50;98.00
14612;BME280;7392;52.078;11.650;2022-07-01T03:32:46;100498.34;;;20.44;99.51
14612;BME280;7392;52.078;11.650;2022-07-01T03:35:14;100502.22;;;20.38;99.88
14612;BME280;7392;52.078;11.650;2022-07-01T03:38:01;100519.41;;;20.35;100.00
14612;BME280;7392;52.078;11.650;2022-07-01T03:40:29;100549.28;;;20.31;100.00
14612;BME280;7392;52.078;11.650;2022-07-01T03:42:58;100553.19;;;20.24;100.00
14612;BME280;7392;52.078;11.650;2022-07-01T03:45:26;100530.97;;;20.18;100.00
14612;BME280;7392;52.078;11.650;2022-07-01T03:47:54;100520.19;;;20.18;100.00
14612;BME280;7392;52.078;11.650;2022-07-01T03:50:22;100523.84;;;20.17;100.00
14612;BME280;7392;52.078;11.650;2022-07-01T03:52:51;100512.22;;;20.15;100.00
14612;BME280;7392;52.078;11.650;2022-07-01T03:55:41;100525.81;;;20.14;100.00
14612;BME280;7392;52.078;11.650;2022-07-01T03:58:08;100544.81;;;20.11;100.00
14612;BME280;7392;52.078;11.650;2022-07-01T04:00:38;100545.00;;;20.06;100.00
14612;BME280;7392;52.078;11.650;2022-07-01T04:03:06;100555.78;;;20.06;100.00
14612;BME280;7392;52.078;11.650;2022-07-01T04:05:35;100540.66;;;20.04;100.00
14612;BME280;7392;52.078;11.650;2022-07-01T04:08:05;100519.09;;;20.04;100.00
14612;BME280;7392;52.078;11.650;2022-07-01T04:10:34;100499.25;;;20.05;100.00
14612;BME280;7392;52.078;11.650;2022-07-01T04:13:04;100483.94;;;20.05;100.00
14612;BME280;7392;52.078;11.650;2022-07-01T04:15:52;100483.22;;;20.02;100.00
14612;BME280;7392;52.078;11.650;2022-07-01T04:18:20;100493.13;;;20.01;100.00
14612;BME280;7392;52.078;11.650;2022-07-01T04:20:49;100481.56;;;19.99;100.00
14612;BME280;7392;52.078;11.650;2022-07-01T04:23:30;100446.78;;;19.93;100.00
14612;BME280;7392;52.078;11.650;2022-07-01T04:26:00;100442.56;;;19.87;100.00
14612;BME280;7392;52.078;11.650;2022-07-01T04:28:50;100469.72;;;19.83;100.00
14612;BME280;7392;52.078;11.650;2022-07-01T04:31:18;100491.38;;;19.79;100.00
14612;BME280;7392;52.078;11.650;2022-07-01T04:33:47;100522.97;;;19.76;100.00
14612;BME280;7392;52.078;11.650;2022-07-01T04:36:16;100551.03;;;19.70;100.00
14612;BME280;7392;52.078;11.650;2022-07-01T04:38:44;100561.06;;;19.67;100.00
14612;BME280;7392;52.078;11.650;2022-07-01T04:41:12;100571.09;;;19.63;100.00
14612;BME280;7392;52.078;11.650;2022-07-01T04:43:58;100584.69;;;19.60;100.00
14612;BME280;7392;52.078;11.650;2022-07-01T04:46:26;100603.66;;;19.57;100.00
14612;BME280;7392;52.078;11.650;2022-07-01T04:48:54;100619.84;;;19.57;100.00
14612;BME280;7392;52.078;11.650;2022-07-01T04:51:22;100638.69;;;19.57;100.00
14612;BME280;7392;52.078;11.650;2022-07-01T04:53:50;100660.13;;;19.60;100.00
14612;BME280;7392;52.078;11.650;2022-07-01T04:56:18;100658.69;;;19.51;100.00
14612;BME280;7392;52.078;11.650;2022-07-01T04:58:46;100649.97;;;19.44;100.00
14612;BME280;7392;52.078;11.650;2022-07-01T05:01:16;100649.41;;;19.36;100.00
14612;BME280;7392;52.078;11.650;2022-07-01T05:03:43;100648.75;;;19.30;100.00
14612;BME280;7392;52.078;11.650;2022-07-01T05:06:12;100630.03;;;19.27;100.00
14612;BME280;7392;52.078;11.650;2022-07-01T05:08:40;100627.66;;;19.19;100.00
14612;BME280;7392;52.078;11.650;2022-07-01T05:11:07;100628.84;;;19.12;100.00
14612;BME280;7392;52.078;11.650;2022-07-01T05:13:35;100621.81;;;19.08;100.00
14612;BME280;7392;52.078;11.650;2022-07-01T05:16:04;100603.28;;;19.00;100.00
14612;BME280;7392;52.078;11.650;2022-07-01T05:18:34;100590.06;;;18.94;100.00
14612;BME280;7392;52.078;11.650;2022-07-01T05:21:19;100620.91;;;18.85;100.00
14612;BME280;7392;52.078;11.650;2022-07-01T05:24:06;100600.66;;;18.75;100.00
14612;BME280;7392;52.078;11.650;2022-07-01T05:26:34;100606.38;;;18.65;100.00
14612;BME280;7392;52.078;11.650;2022-07-01T05:29:03;100609.41;;;18.56;100.00
14612;BME280;7392;52.078;11.650;2022-07-01T05:31:31;100609.59;;;18.52;100.00
14612;BME280;7392;52.078;11.650;2022-07-01T05:34:01;100619.75;;;18.43;100.00
14612;BME280;7392;52.078;11.650;2022-07-01T05:36:31;100628.03;;;18.37;100.00
14612;BME280;7392;52.078;11.650;2022-07-01T05:38:58;100632.53;;;18.37;100.00
14612;BME280;7392;52.078;11.650;2022-07-01T05:41:26;100620.88;;;18.36;100.00
14612;BME280;7392;52.078;11.650;2022-07-01T05:43:54;100633.50;;;18.34;100.00
14612;BME280;7392;52.078;11.650;2022-07-01T05:46:22;100643.56;;;18.29;100.00
14612;BME280;7392;52.078;11.650;2022-07-01T05:48:50;100662.41;;;18.27;100.00
14612;BME280;7392;52.078;11.650;2022-07-01T05:51:20;100684.81;;;18.28;100.00
14612;BME280;7392;52.078;11.650;2022-07-01T05:53:48;100686.63;;;18.27;100.00
14612;BME280;7392;52.078;11.650;2022-07-01T05:56:16;100694.72;;;18.26;100.00
14612;BME280;7392;52.078;11.650;2022-07-01T05:58:43;100700.22;;;18.23;100.00
14612;BME280;7392;52.078;11.650;2022-07-01T06:01:11;100703.94;;;18.19;100.00
14612;BME280;7392;52.078;11.650;2022-07-01T06:03:39;100711.28;;;18.13;100.00
14612;BME280;7392;52.078;11.650;2022-07-01T06:06:07;100724.72;;;18.13;100.00
14612;BME280;7392;52.078;11.650;2022-07-01T06:08:37;100731.09;;;18.11;100.00
14612;BME280;7392;52.078;11.650;2022-07-01T06:11:05;100719.53;;;18.09;100.00
14612;BME280;7392;52.078;11.650;2022-07-01T06:13:32;100706.91;;;18.11;100.00
14612;BME280;7392;52.078;11.650;2022-07-01T06:16:00;100708.59;;;18.13;100.00
14612;BME280;7392;52.078;11.650;2022-07-01T06:18:28;100706.72;;;18.16;100.00
14612;BME280;7392;52.078;11.650;2022-07-01T06:20:56;100706.63;;;18.19;100.00
14612;BME280;7392;52.078;11.650;2022-07-01T06:23:24;100696.69;;;18.21;100.00
14612;BME280;7392;52.078;11.650;2022-07-01T06:25:53;100694.72;;;18.26;100.00
14612;BME280;7392;52.078;11.650;2022-07-01T06:28:21;100700.75;;;18.32;100.00
14612;BME280;7392;52.078;11.650;2022-07-01T06:30:49;100697.09;;;18.35;100.00
14612;BME280;7392;52.078;11.650;2022-07-01T06:33:21;100697.09;;;18.35;100.00
14612;BME280;7392;52.078;11.650;2022-07-01T06:35:48;100700.00;;;18.29;100.00
14612;BME280;7392;52.078;11.650;2022-07-01T06:38:17;100708.16;;;18.26;100.00
14612;BME280;7392;52.078;11.650;2022-07-01T06:40:45;100709.22;;;18.22;100.00
14612;BME280;7392;52.078;11.650;2022-07-01T06:43:35;100695.00;;;18.18;100.00
14612;BME280;7392;52.078;11.650;2022-07-01T06:46:04;100688.03;;;18.12;100.00
14612;BME280;7392;52.078;11.650;2022-07-01T06:48:32;100695.34;;;18.09;100.00
14612;BME280;7392;52.078;11.650;2022-07-01T06:51:00;100704.22;;;18.11;100.00
14612;BME280;7392;52.078;11.650;2022-07-01T06:53:28;100714.06;;;18.10;100.00
14612;BME280;7392;52.078;11.650;2022-07-01T06:55:56;100724.91;;;18.09;100.00
14612;BME280;7392;52.078;11.650;2022-07-01T06:58:25;100726.84;;;18.04;100.00
14612;BME280;7392;52.078;11.650;2022-07-01T07:00:54;100731.38;;;18.02;100.00
14612;BME280;7392;52.078;11.650;2022-07-01T07:03:22;100724.38;;;17.98;100.00
14612;BME280;7392;52.078;11.650;2022-07-01T07:05:50;100741.34;;;17.98;100.00
14612;BME280;7392;52.078;11.650;2022-07-01T07:08:19;100754.09;;;17.91;100.00
14612;BME280;7392;52.078;11.650;2022-07-01T07:10:46;100760.53;;;17.86;100.00
14612;BME280;7392;52.078;11.650;2022-07-01T07:13:14;100765.22;;;17.79;100.00
14612;BME280;7392;52.078;11.650;2022-07-01T07:15:42;100761.84;;;17.72;100.00
14612;BME280;7392;52.078;11.650;2022-07-01T07:18:11;100762.94;;;17.67;99.94
14612;BME280;7392;52.078;11.650;2022-07-01T07:20:39;100771.25;;;17.57;99.73
14612;BME280;7392;52.078;11.650;2022-07-01T07:23:07;100765.09;;;17.54;100.00
14612;BME280;7392;52.078;11.650;2022-07-01T07:25:35;100758.28;;;17.42;100.00
14612;BME280;7392;52.078;11.650;2022-07-01T07:28:03;100771.88;;;17.37;100.00
14612;BME280;7392;52.078;11.650;2022-07-01T07:30:31;100764.78;;;17.35;100.00
14612;BME280;7392;52.078;11.650;2022-07-01T07:32:59;100778.25;;;17.33;100.00
14612;BME280;7392;52.078;11.650;2022-07-01T07:35:29;100799.72;;;17.33;100.00
14612;BME280;7392;52.078;11.650;2022-07-01T07:37:57;100811.44;;;17.31;100.00
14612;BME280;7392;52.078;11.650;2022-07-01T07:40:25;100805.25;;;17.29;100.00
14612;BME280;7392;52.078;11.650;2022-07-01T07:42:53;100778.41;;;17.29;100.00
14612;BME280;7392;52.078;11.650;2022-07-01T07:45:21;100765.94;;;17.26;100.00
14612;BME280;7392;52.078;11.650;2022-07-01T07:47:49;100782.91;;;17.27;100.00
14612;BME280;7392;52.078;11.650;2022-07-01T07:50:17;100801.78;;;17.25;100.00
14612;BME280;7392;52.078;11.650;2022-07-01T07:52:47;100814.28;;;17.25;100.00
14612;BME280;7392;52.078;11.650;2022-07-01T07:55:14;100805.38;;;17.24;100.00
14612;BME280;7392;52.078;11.650;2022-07-01T07:57:42;100808.06;;;17.24;100.00
14612;BME280;7392;52.078;11.650;2022-07-01T08:00:12;100814.25;;;17.26;100.00
14612;BME280;7392;52.078;11.650;2022-07-01T08:02:40;100828.78;;;17.19;100.00
14612;BME280;7392;52.078;11.650;2022-07-01T08:05:10;100832.38;;;17.18;100.00
14612;BME280;7392;52.078;11.650;2022-07-01T08:07:40;100836.81;;;17.19;100.00
14612;BME280;7392;52.078;11.650;2022-07-01T08:10:11;100827.84;;;17.20;100.00
14612;BME280;7392;52.078;11.650;2022-07-01T08:12:41;100828.66;;;17.24;100.00
14612;BME280;7392;52.078;11.650;2022-07-01T08:15:09;100827.66;;;17.26;100.00
14612;BME280;7392;52.078;11.650;2022-07-01T08:17:37;100838.44;;;17.25;100.00
14612;BME280;7392;52.078;11.650;2022-07-01T08:20:07;100840.28;;;17.23;100.00
14612;BME280;7392;52.078;11.650;2022-07-01T08:22:35;100848.34;;;17.23;100.00
14612;BME280;7392;52.078;11.650;2022-07-01T08:25:04;100861.88;;;17.18;100.00
14612;BME280;7392;52.078;11.650;2022-07-01T08:27:33;100855.56;;;17.20;100.00
14612;BME280;7392;52.078;11.650;2022-07-01T08:30:02;100860.09;;;17.18;100.00
14612;BME280;7392;52.078;11.650;2022-07-01T08:32:30;100877.19;;;17.14;100.00
14612;BME280;7392;52.078;11.650;2022-07-01T08:34:57;100889.06;;;17.06;100.00
14612;BME280;7392;52.078;11.650;2022-07-01T08:37:27;100901.78;;;16.97;100.00
14612;BME280;7392;52.078;11.650;2022-07-01T08:39:55;100899.28;;;16.91;100.00
14612;BME280;7392;52.078;11.650;2022-07-01T08:42:23;100888.69;;;16.83;100.00
14612;BME280;7392;52.078;11.650;2022-07-01T08:44:52;100879.03;;;16.78;100.00
14612;BME280;7392;52.078;11.650;2022-07-01T08:47:20;100907.72;;;16.74;100.00
14612;BME280;7392;52.078;11.650;2022-07-01T08:49:48;100912.31;;;16.69;100.00
14612;BME280;7392;52.078;11.650;2022-07-01T08:52:16;100923.09;;;16.68;100.00
14612;BME280;7392;52.078;11.650;2022-07-01T08:54:44;100916.94;;;16.62;100.00
14612;BME280;7392;52.078;11.650;2022-07-01T08:57:11;100914.25;;;16.64;100.00
14612;BME280;7392;52.078;11.650;2022-07-01T08:59:39;100907.03;;;16.66;100.00
14612;BME280;7392;52.078;11.650;2022-07-01T09:02:09;100896.31;;;16.66;100.00
14612;BME280;7392;52.078;11.650;2022-07-01T09:04:37;100891.84;;;16.65;100.00
14612;BME280;7392;52.078;11.650;2022-07-01T09:07:07;100891.78;;;16.68;100.00
14612;BME280;7392;52.078;11.650;2022-07-01T09:09:37;100866.69;;;16.71;100.00
14612;BME280;7392;52.078;11.650;2022-07-01T09:12:06;100860.38;;;16.73;100.00
14612;BME280;7392;52.078;11.650;2022-07-01T09:14:35;100859.41;;;16.76;100.00
14612;BME280;7392;52.078;11.650;2022-07-01T09:17:05;100873.59;;;16.81;100.00
14612;BME280;7392;52.078;11.650;2022-07-01T09:19:36;100883.44;;;16.79;100.00
14612;BME280;7392;52.078;11.650;2022-07-01T09:22:12;100897.84;;;16.76;100.00
14612;BME280;7392;52.078;11.650;2022-07-01T09:24:41;100912.13;;;16.77;100.00
14612;BME280;7392;52.078;11.650;2022-07-01T09:27:12;100905.16;;;16.70;100.00
14612;BME280;7392;52.078;11.650;2022-07-01T09:29:42;100898.09;;;16.67;100.00
14612;BME280;7392;52.078;11.650;2022-07-01T09:32:11;100894.69;;;16.59;100.00
14612;BME280;7392;52.078;11.650;2022-07-01T09:34:43;100907.28;;;16.57;100.00
14612;BME280;7392;52.078;11.650;2022-07-01T09:37:13;100902.84;;;16.54;100.00
14612;BME280;7392;52.078;11.650;2022-07-01T09:39:43;100906.56;;;16.49;100.00
14612;BME280;7392;52.078;11.650;2022-07-01T09:42:11;100903.09;;;16.45;100.00
14612;BME280;7392;52.078;11.650;2022-07-01T09:44:54;100901.22;;;16.49;100.00
14612;BME280;7392;52.078;11.650;2022-07-01T09:47:29;100912.69;;;16.54;100.00
14612;BME280;7392;52.078;11.650;2022-07-01T09:50:00;100917.06;;;16.58;100.00
14612;BME280;7392;52.078;11.650;2022-07-01T09:52:28;100933.03;;;16.62;100.00
14612;BME280;7392;52.078;11.650;2022-07-01T09:55:04;100932.09;;;16.63;100.00
14612;BME280;7392;52.078;11.650;2022-07-01T09:57:32;100926.66;;;16.67;100.00
14612;BME280;7392;52.078;11.650;2022-07-01T09:59:59;100937.41;;;16.67;100.00
14612;BME280;7392;52.078;11.650;2022-07-01T10:02:33;100946.25;;;16.70;100.00
14612;BME280;7392;52.078;11.650;2022-07-01T10:05:08;100954.25;;;16.72;100.00
14612;BME280;7392;52.078;11.650;2022-07-01T10:07:47;100960.44;;;16.74;100.00
14612;BME280;7392;52.078;11.650;2022-07-01T10:10:31;100960.34;;;16.78;100.00
14612;BME280;7392;52.078;11.650;2022-07-01T10:13:03;100961.13;;;16.83;100.00
14612;BME280;7392;52.078;11.650;2022-07-01T10:15:33;100965.53;;;16.88;100.00
14612;BME280;7392;52.078;11.650;2022-07-01T10:18:02;100968.91;;;16.94;100.00
14612;BME280;7392;52.078;11.650;2022-07-01T10:20:32;100969.78;;;16.96;100.00
14612;BME280;7392;52.078;11.650;2022-07-01T10:23:01;100972.44;;;16.98;100.00
14612;BME280;7392;52.078;11.650;2022-07-01T10:25:35;100987.66;;;16.96;100.00
14612;BME280;7392;52.078;11.650;2022-07-01T10:28:23;100986.81;;;16.94;100.00
14612;BME280;7392;52.078;11.650;2022-07-01T10:30:53;100995.81;;;16.93;100.00
14612;BME280;7392;52.078;11.650;2022-07-01T10:33:33;100985.03;;;16.94;100.00
14612;BME280;7392;52.078;11.650;2022-07-01T10:36:05;101001.97;;;16.96;100.00
14612;BME280;7392;52.078;11.650;2022-07-01T10:38:34;101009.13;;;16.96;100.00
14612;BME280;7392;52.078;11.650;2022-07-01T10:41:04;101016.38;;;16.92;100.00
14612;BME280;7392;52.078;11.650;2022-07-01T10:43:37;101023.56;;;16.90;100.00
14612;BME280;7392;52.078;11.650;2022-07-01T10:46:08;101031.63;;;16.90;100.00
14612;BME280;7392;52.078;11.650;2022-07-01T10:48:36;101031.63;;;16.90;100.00
14612;BME280;7392;52.078;11.650;2022-07-01T10:51:06;101031.63;;;16.90;100.00
14612;BME280;7392;52.078;11.650;2022-07-01T10:53:45;101024.56;;;16.88;100.00
14612;BME280;7392;52.078;11.650;2022-07-01T10:56:38;101032.59;;;16.88;100.00
14612;BME280;7392;52.078;11.650;2022-07-01T10:59:06;101029.03;;;16.86;100.00
14612;BME280;7392;52.078;11.650;2022-07-01T11:01:34;101024.69;;;16.80;100.00
14612;BME280;7392;52.078;11.650;2022-07-01T11:04:04;101029.19;;;16.79;100.00
14612;BME280;7392;52.078;11.650;2022-07-01T11:06:33;101012.34;;;16.73;100.00
14612;BME280;7392;52.078;11.650;2022-07-01T11:09:05;101005.19;;;16.72;100.00
14612;BME280;7392;52.078;11.650;2022-07-01T11:11:33;101007.88;;;16.72;100.00
14612;BME280;7392;52.078;11.650;2022-07-01T11:14:01;101005.16;;;16.73;100.00
14612;BME280;7392;52.078;11.650;2022-07-01T11:16:29;101005.13;;;16.75;100.00
14612;BME280;7392;52.078;11.650;2022-07-01T11:18:58;100999.78;;;16.75;100.00
14612;BME280;7392;52.078;11.650;2022-07-01T11:21:26;100994.38;;;16.76;100.00
14612;BME280;7392;52.078;11.650;2022-07-01T11:23:55;100987.91;;;16.87;100.00
14612;BME280;7392;52.078;11.650;2022-07-01T11:26:24;100987.88;;;16.88;100.00
14612;BME280;7392;52.078;11.650;2022-07-01T11:28:52;100987.81;;;16.91;100.00
14612;BME280;7392;52.078;11.650;2022-07-01T11:31:28;100986.78;;;16.95;100.00
14612;BME280;7392;52.078;11.650;2022-07-01T11:33:56;100985.69;;;17.04;100.00
14612;BME280;7392;52.078;11.650;2022-07-01T11:36:25;100983.63;;;17.15;100.00
14612;BME280;7392;52.078;11.650;2022-07-01T11:39:12;100976.28;;;17.22;100.00
14612;BME280;7392;52.078;11.650;2022-07-01T11:41:54;100991.38;;;17.26;100.00
14612;BME280;7392;52.078;11.650;2022-07-01T11:44:33;100993.00;;;17.32;100.00
14612;BME280;7392;52.078;11.650;2022-07-01T11:47:02;101003.44;;;17.44;100.00
14612;BME280;7392;52.078;11.650;2022-07-01T11:49:31;100999.56;;;17.56;100.00
14612;BME280;7392;52.078;11.650;2022-07-01T11:52:09;101001.09;;;17.65;100.00
14612;BME280;7392;52.078;11.650;2022-07-01T11:54:40;101008.06;;;17.72;100.00
14612;BME280;7392;52.078;11.650;2022-07-01T11:57:09;101006.22;;;17.74;100.00
14612;BME280;7392;52.078;11.650;2022-07-01T11:59:39;101012.59;;;17.70;100.00
14612;BME280;7392;52.078;11.650;2022-07-01T12:02:10;101028.75;;;17.68;100.00
14612;BME280;7392;52.078;11.650;2022-07-01T12:04:38;101018.88;;;17.69;100.00
14612;BME280;7392;52.078;11.650;2022-07-01T12:07:07;101022.47;;;17.68;100.00
14612;BME280;7392;52.078;11.650;2022-07-01T12:09:38;101028.72;;;17.70;100.00
14612;BME280;7392;52.078;11.650;2022-07-01T12:12:15;101031.38;;;17.71;100.00
14612;BME280;7392;52.078;11.650;2022-07-01T12:14:49;101024.97;;;17.75;100.00
14612;BME280;7392;52.078;11.650;2022-07-01T12:17:19;101028.41;;;17.81;100.00
14612;BME280;7392;52.078;11.650;2022-07-01T12:19:48;101036.59;;;17.76;100.00
14612;BME280;7392;52.078;11.650;2022-07-01T12:22:17;101038.44;;;17.74;99.98
14612;BME280;7392;52.078;11.650;2022-07-01T12:24:47;101040.31;;;17.70;99.96
14612;BME280;7392;52.078;11.650;2022-07-01T12:27:15;101042.34;;;17.62;98.73
14612;BME280;7392;52.078;11.650;2022-07-01T12:29:52;101029.88;;;17.60;98.95
14612;BME280;7392;52.078;11.650;2022-07-01T12:32:22;101036.16;;;17.58;98.34
14612;BME280;7392;52.078;11.650;2022-07-01T12:34:52;101047.97;;;17.53;98.09
14612;BME280;7392;52.078;11.650;2022-07-01T12:37:28;101043.50;;;17.52;98.21
14612;BME280;7392;52.078;11.650;2022-07-01T12:39:59;101037.06;;;17.57;99.11
14612;BME280;7392;52.078;11.650;2022-07-01T12:42:29;101043.31;;;17.60;98.05
14612;BME280;7392;52.078;11.650;2022-07-01T12:45:00;101044.19;;;17.60;98.47
14612;BME280;7392;52.078;11.650;2022-07-01T12:47:30;101038.75;;;17.63;98.21
14612;BME280;7392;52.078;11.650;2022-07-01T12:50:18;101040.38;;;17.69;98.93
14612;BME280;7392;52.078;11.650;2022-07-01T12:52:59;101040.28;;;17.72;98.96
14612;BME280;7392;52.078;11.650;2022-07-01T12:55:31;101043.94;;;17.69;98.62
14612;BME280;7392;52.078;11.650;2022-07-01T12:58:01;101044.88;;;17.68;98.28